sensor_id;sensor_type;location;lat;lon;timestamp;P1;durP1;ratioP1;P2;durP2;ratioP2
14235;SDS011;7202;50.718;7.072;2022-10-16T00:01:44;5.25;;;1.08;;
14235;SDS011;7202;50.718;7.072;2022-10-16T00:04:12;2.83;;;1.30;;
14235;SDS011;7202;50.718;7.072;2022-10-16T00:06:41;3.13;;;1.20;;
14235;SDS011;7202;50.718;7.072;2022-10-16T00:09:10;2.97;;;1.10;;
14235;SDS011;7202;50.718;7.072;2022-10-16T00:11:39;2.25;;;1.38;;
14235;SDS011;7202;50.718;7.072;2022-10-16T00:14:09;1.88;;;1.10;;
14235;SDS011;7202;50.718;7.072;2022-10-16T00:16:41;1.30;;;1.15;;
14235;SDS011;7202;50.718;7.072;2022-10-16T00:19:10;2.63;;;1.13;;
14235;SDS011;7202;50.718;7.072;2022-10-16T00:21:39;4.10;;;1.33;;
14235;SDS011;7202;50.718;7.072;2022-10-16T00:24:09;1.85;;;1.17;;
14235;SDS011;7202;50.718;7.072;2022-10-16T00:26:38;2.40;;;1.00;;
14235;SDS011;7202;50.718;7.072;2022-10-16T00:29:08;1.55;;;1.20;;
14235;SDS011;7202;50.718;7.072;2022-10-16T00:31:37;1.20;;;1.10;;
14235;SDS011;7202;50.718;7.072;2022-10-16T00:34:07;3.65;;;1.23;;
14235;SDS011;7202;50.718;7.072;2022-10-16T00:36:35;1.25;;;1.00;;
14235;SDS011;7202;50.718;7.072;2022-10-16T00:39:04;2.15;;;1.48;;
14235;SDS011;7202;50.718;7.072;2022-10-16T00:41:32;3.42;;;1.13;;
14235;SDS011;7202;50.718;7.072;2022-10-16T00:44:02;1.20;;;1.10;;
14235;SDS011;7202;50.718;7.072;2022-10-16T00:46:34;1.70;;;1.30;;
14235;SDS011;7202;50.718;7.072;2022-10-16T00:49:08;1.67;;;1.30;;
14235;SDS011;7202;50.718;7.072;2022-10-16T00:51:39;3.08;;;1.10;;
14235;SDS011;7202;50.718;7.072;2022-10-16T00:54:10;2.40;;;1.20;;
14235;SDS011;7202;50.718;7.072;2022-10-16T00:56:42;1.40;;;1.30;;
14235;SDS011;7202;50.718;7.072;2022-10-16T00:59:14;2.40;;;1.13;;
14235;SDS011;7202;50.718;7.072;2022-10-16T01:01:44;2.75;;;1.50;;
14235;SDS011;7202;50.718;7.072;2022-10-16T01:04:14;3.70;;;1.20;;
14235;SDS011;7202;50.718;7.072;2022-10-16T01:06:47;1.60;;;1.08;;
14235;SDS011;7202;50.718;7.072;2022-10-16T01:09:23;2.40;;;1.05;;
14235;SDS011;7202;50.718;7.072;2022-10-16T01:11:57;4.07;;;1.42;;
14235;SDS011;7202;50.718;7.072;2022-10-16T01:14:35;2.90;;;1.08;;
14235;SDS011;7202;50.718;7.072;2022-10-16T01:17:11;2.35;;;1.10;;
14235;SDS011;7202;50.718;7.072;2022-10-16T01:19:49;1.85;;;1.33;;
14235;SDS011;7202;50.718;7.072;2022-10-16T01:22:31;1.65;;;0.95;;
14235;SDS011;7202;50.718;7.072;2022-10-16T01:25:09;2.00;;;1.10;;
14235;SDS011;7202;50.718;7.072;2022-10-16T01:27:45;1.55;;;1.20;;
14235;SDS011;7202;50.718;7.072;2022-10-16T01:30:17;1.23;;;1.13;;
14235;SDS011;7202;50.718;7.072;2022-10-16T01:32:50;2.90;;;1.27;;
14235;SDS011;7202;50.718;7.072;2022-10-16T01:35:24;1.50;;;1.20;;
14235;SDS011;7202;50.718;7.072;2022-10-16T01:37:57;0.93;;;0.90;;
14235;SDS011;7202;50.718;7.072;2022-10-16T01:40:31;2.63;;;1.15;;
14235;SDS011;7202;50.718;7.072;2022-10-16T01:43:04;2.90;;;1.15;;
14235;SDS011;7202;50.718;7.072;2022-10-16T01:45:35;1.42;;;1.15;;
14235;SDS011;7202;50.718;7.072;2022-10-16T01:48:05;4.85;;;1.15;;
14235;SDS011;7202;50.718;7.072;2022-10-16T01:50:37;0.80;;;0.73;;
14235;SDS011;7202;50.718;7.072;2022-10-16T01:53:08;1.13;;;1.02;;
14235;SDS011;7202;50.718;7.072;2022-10-16T01:55:44;1.27;;;1.10;;
14235;SDS011;7202;50.718;7.072;2022-10-16T01:58:16;1.83;;;1.10;;
14235;SDS011;7202;50.718;7.072;2022-10-16T02:00:45;2.17;;;1.40;;
14235;SDS011;7202;50.718;7.072;2022-10-16T02:03:17;3.55;;;1.20;;
14235;SDS011;7202;50.718;7.072;2022-10-16T02:05:48;1.27;;;1.17;;
14235;SDS011;7202;50.718;7.072;2022-10-16T02:08:21;1.20;;;1.10;;
14235;SDS011;7202;50.718;7.072;2022-10-16T02:10:52;1.40;;;0.90;;
14235;SDS011;7202;50.718;7.072;2022-10-16T02:13:26;2.88;;;1.25;;
14235;SDS011;7202;50.718;7.072;2022-10-16T02:15:59;2.63;;;1.23;;
14235;SDS011;7202;50.718;7.072;2022-10-16T02:18:27;2.40;;;1.20;;
14235;SDS011;7202;50.718;7.072;2022-10-16T02:20:59;1.48;;;1.17;;
14235;SDS011;7202;50.718;7.072;2022-10-16T02:23:33;1.98;;;1.40;;
14235;SDS011;7202;50.718;7.072;2022-10-16T02:26:06;1.83;;;1.20;;
14235;SDS011;7202;50.718;7.072;2022-10-16T02:28:42;1.10;;;1.00;;
14235;SDS011;7202;50.718;7.072;2022-10-16T02:31:22;4.40;;;1.48;;
14235;SDS011;7202;50.718;7.072;2022-10-16T02:33:55;1.08;;;0.98;;
14235;SDS011;7202;50.718;7.072;2022-10-16T02:36:26;1.20;;;1.10;;
14235;SDS011;7202;50.718;7.072;2022-10-16T02:38:55;3.95;;;1.20;;
14235;SDS011;7202;50.718;7.072;2022-10-16T02:41:25;1.63;;;1.05;;
14235;SDS011;7202;50.718;7.072;2022-10-16T02:43:56;2.22;;;1.10;;
14235;SDS011;7202;50.718;7.072;2022-10-16T02:46:24;1.95;;;1.15;;
14235;SDS011;7202;50.718;7.072;2022-10-16T02:48:53;1.30;;;1.10;;
14235;SDS011;7202;50.718;7.072;2022-10-16T02:51:21;2.45;;;1.10;;
14235;SDS011;7202;50.718;7.072;2022-10-16T02:53:50;1.77;;;1.10;;
14235;SDS011;7202;50.718;7.072;2022-10-16T02:56:18;3.22;;;1.30;;
14235;SDS011;7202;50.718;7.072;2022-10-16T02:58:47;3.60;;;1.00;;
14235;SDS011;7202;50.718;7.072;2022-10-16T03:01:17;1.95;;;1.05;;
14235;SDS011;7202;50.718;7.072;2022-10-16T03:03:46;1.05;;;0.95;;
14235;SDS011;7202;50.718;7.072;2022-10-16T03:06:14;2.53;;;1.10;;
14235;SDS011;7202;50.718;7.072;2022-10-16T03:08:43;1.55;;;1.20;;
14235;SDS011;7202;50.718;7.072;2022-10-16T03:11:11;2.03;;;1.13;;
14235;SDS011;7202;50.718;7.072;2022-10-16T03:13:40;2.47;;;1.38;;
14235;SDS011;7202;50.718;7.072;2022-10-16T03:16:08;2.10;;;1.55;;
14235;SDS011;7202;50.718;7.072;2022-10-16T03:18:38;2.92;;;1.30;;
14235;SDS011;7202;50.718;7.072;2022-10-16T03:21:07;1.15;;;1.05;;
14235;SDS011;7202;50.718;7.072;2022-10-16T03:23:35;3.30;;;1.10;;
14235;SDS011;7202;50.718;7.072;2022-10-16T03:26:04;1.92;;;1.10;;
14235;SDS011;7202;50.718;7.072;2022-10-16T03:28:32;1.48;;;1.10;;
14235;SDS011;7202;50.718;7.072;2022-10-16T03:31:01;3.22;;;1.00;;
14235;SDS011;7202;50.718;7.072;2022-10-16T03:33:30;3.90;;;1.13;;
14235;SDS011;7202;50.718;7.072;2022-10-16T03:35:59;1.48;;;0.93;;
14235;SDS011;7202;50.718;7.072;2022-10-16T03:38:28;2.75;;;0.90;;
14235;SDS011;7202;50.718;7.072;2022-10-16T03:40:56;1.10;;;1.00;;
14235;SDS011;7202;50.718;7.072;2022-10-16T03:43:25;0.90;;;0.90;;
14235;SDS011;7202;50.718;7.072;2022-10-16T03:45:53;2.25;;;1.05;;
14235;SDS011;7202;50.718;7.072;2022-10-16T03:48:22;2.83;;;0.95;;
14235;SDS011;7202;50.718;7.072;2022-10-16T03:50:51;0.85;;;0.70;;
14235;SDS011;7202;50.718;7.072;2022-10-16T03:53:21;1.77;;;1.13;;
14235;SDS011;7202;50.718;7.072;2022-10-16T03:55:49;1.10;;;1.00;;
14235;SDS011;7202;50.718;7.072;2022-10-16T03:58:18;1.20;;;0.80;;
14235;SDS011;7202;50.718;7.072;2022-10-16T04:00:47;1.27;;;0.90;;
14235;SDS011;7202;50.718;7.072;2022-10-16T04:03:15;1.77;;;1.00;;
14235;SDS011;7202;50.718;7.072;2022-10-16T04:05:45;2.30;;;0.90;;
14235;SDS011;7202;50.718;7.072;2022-10-16T04:08:14;1.20;;;1.10;;
14235;SDS011;7202;50.718;7.072;2022-10-16T04:10:44;0.90;;;0.90;;
14235;SDS011;7202;50.718;7.072;2022-10-16T04:13:13;1.05;;;0.98;;
14235;SDS011;7202;50.718;7.072;2022-10-16T04:15:42;1.20;;;0.90;;
14235;SDS011;7202;50.718;7.072;2022-10-16T04:18:12;1.80;;;1.00;;
14235;SDS011;7202;50.718;7.072;2022-10-16T04:20:41;1.13;;;0.80;;
14235;SDS011;7202;50.718;7.072;2022-10-16T04:23:09;1.40;;;1.00;;
14235;SDS011;7202;50.718;7.072;2022-10-16T04:25:38;1.83;;;1.00;;
14235;SDS011;7202;50.718;7.072;2022-10-16T04:28:08;1.40;;;0.93;;
14235;SDS011;7202;50.718;7.072;2022-10-16T04:30:37;1.90;;;0.90;;
14235;SDS011;7202;50.718;7.072;2022-10-16T04:33:07;1.00;;;0.90;;
14235;SDS011;7202;50.718;7.072;2022-10-16T04:35:37;3.22;;;1.05;;
14235;SDS011;7202;50.718;7.072;2022-10-16T04:38:05;1.02;;;0.80;;
14235;SDS011;7202;50.718;7.072;2022-10-16T04:40:34;0.93;;;0.90;;
14235;SDS011;7202;50.718;7.072;2022-10-16T04:43:03;4.13;;;0.93;;
14235;SDS011;7202;50.718;7.072;2022-10-16T04:45:33;0.90;;;0.90;;
14235;SDS011;7202;50.718;7.072;2022-10-16T04:48:02;2.20;;;0.80;;
14235;SDS011;7202;50.718;7.072;2022-10-16T04:50:30;1.40;;;0.98;;
14235;SDS011;7202;50.718;7.072;2022-10-16T04:53:05;1.60;;;0.80;;
14235;SDS011;7202;50.718;7.072;2022-10-16T04:55:34;1.40;;;1.05;;
14235;SDS011;7202;50.718;7.072;2022-10-16T04:58:03;1.90;;;1.20;;
14235;SDS011;7202;50.718;7.072;2022-10-16T05:00:31;3.22;;;1.83;;
14235;SDS011;7202;50.718;7.072;2022-10-16T05:03:02;1.05;;;0.88;;
14235;SDS011;7202;50.718;7.072;2022-10-16T05:05:34;1.52;;;1.00;;
14235;SDS011;7202;50.718;7.072;2022-10-16T05:08:03;2.67;;;1.17;;
14235;SDS011;7202;50.718;7.072;2022-10-16T05:10:32;1.20;;;1.10;;
14235;SDS011;7202;50.718;7.072;2022-10-16T05:13:00;1.48;;;0.95;;
14235;SDS011;7202;50.718;7.072;2022-10-16T05:15:29;2.22;;;1.40;;
14235;SDS011;7202;50.718;7.072;2022-10-16T05:17:59;1.80;;;1.42;;
14235;SDS011;7202;50.718;7.072;2022-10-16T05:20:28;3.40;;;1.30;;
14235;SDS011;7202;50.718;7.072;2022-10-16T05:22:56;1.10;;;1.00;;
14235;SDS011;7202;50.718;7.072;2022-10-16T05:25:25;3.25;;;1.23;;
14235;SDS011;7202;50.718;7.072;2022-10-16T05:27:53;1.15;;;1.00;;
14235;SDS011;7202;50.718;7.072;2022-10-16T05:30:22;1.25;;;1.15;;
14235;SDS011;7202;50.718;7.072;2022-10-16T05:32:50;2.50;;;1.40;;
14235;SDS011;7202;50.718;7.072;2022-10-16T05:35:21;2.42;;;1.23;;
14235;SDS011;7202;50.718;7.072;2022-10-16T05:37:49;1.20;;;1.10;;
14235;SDS011;7202;50.718;7.072;2022-10-16T05:40:18;1.30;;;1.20;;
14235;SDS011;7202;50.718;7.072;2022-10-16T05:42:46;4.05;;;1.40;;
14235;SDS011;7202;50.718;7.072;2022-10-16T05:45:15;1.65;;;1.20;;
14235;SDS011;7202;50.718;7.072;2022-10-16T05:47:43;3.10;;;1.30;;
14235;SDS011;7202;50.718;7.072;2022-10-16T05:50:12;5.18;;;1.30;;
14235;SDS011;7202;50.718;7.072;2022-10-16T05:52:42;1.48;;;1.15;;
14235;SDS011;7202;50.718;7.072;2022-10-16T05:55:11;1.08;;;0.98;;
14235;SDS011;7202;50.718;7.072;2022-10-16T05:57:39;1.52;;;1.17;;
14235;SDS011;7202;50.718;7.072;2022-10-16T06:00:08;1.70;;;1.17;;
14235;SDS011;7202;50.718;7.072;2022-10-16T06:02:41;1.30;;;1.20;;
14235;SDS011;7202;50.718;7.072;2022-10-16T06:05:10;1.80;;;1.08;;
14235;SDS011;7202;50.718;7.072;2022-10-16T06:07:38;1.05;;;1.00;;
14235;SDS011;7202;50.718;7.072;2022-10-16T06:10:08;1.67;;;1.20;;
14235;SDS011;7202;50.718;7.072;2022-10-16T06:12:37;1.13;;;1.02;;
14235;SDS011;7202;50.718;7.072;2022-10-16T06:15:06;1.50;;;1.02;;
14235;SDS011;7202;50.718;7.072;2022-10-16T06:17:35;1.88;;;1.33;;
14235;SDS011;7202;50.718;7.072;2022-10-16T06:20:03;1.25;;;1.00;;
14235;SDS011;7202;50.718;7.072;2022-10-16T06:22:32;3.45;;;1.10;;
14235;SDS011;7202;50.718;7.072;2022-10-16T06:25:01;1.67;;;1.40;;
14235;SDS011;7202;50.718;7.072;2022-10-16T06:27:31;1.30;;;1.20;;
14235;SDS011;7202;50.718;7.072;2022-10-16T06:30:00;1.30;;;1.17;;
14235;SDS011;7202;50.718;7.072;2022-10-16T06:32:30;2.17;;;1.27;;
14235;SDS011;7202;50.718;7.072;2022-10-16T06:34:59;1.50;;;1.40;;
14235;SDS011;7202;50.718;7.072;2022-10-16T06:37:27;1.35;;;1.15;;
14235;SDS011;7202;50.718;7.072;2022-10-16T06:39:56;2.30;;;1.42;;
14235;SDS011;7202;50.718;7.072;2022-10-16T06:42:24;2.50;;;1.38;;
14235;SDS011;7202;50.718;7.072;2022-10-16T06:44:54;3.78;;;1.35;;
14235;SDS011;7202;50.718;7.072;2022-10-16T06:47:23;2.10;;;1.40;;
14235;SDS011;7202;50.718;7.072;2022-10-16T06:49:51;1.30;;;1.20;;
14235;SDS011;7202;50.718;7.072;2022-10-16T06:52:20;1.63;;;1.30;;
14235;SDS011;7202;50.718;7.072;2022-10-16T06:54:49;2.58;;;1.50;;
14235;SDS011;7202;50.718;7.072;2022-10-16T06:57:17;2.20;;;1.55;;
14235;SDS011;7202;50.718;7.072;2022-10-16T06:59:46;1.52;;;1.42;;
14235;SDS011;7202;50.718;7.072;2022-10-16T07:02:22;2.05;;;1.50;;
14235;SDS011;7202;50.718;7.072;2022-10-16T07:04:51;3.85;;;1.77;;
14235;SDS011;7202;50.718;7.072;2022-10-16T07:07:20;1.77;;;1.50;;
14235;SDS011;7202;50.718;7.072;2022-10-16T07:09:51;2.10;;;1.23;;
14235;SDS011;7202;50.718;7.072;2022-10-16T07:12:20;2.95;;;1.52;;
14235;SDS011;7202;50.718;7.072;2022-10-16T07:14:48;2.85;;;1.10;;
14235;SDS011;7202;50.718;7.072;2022-10-16T07:17:19;1.77;;;1.30;;
14235;SDS011;7202;50.718;7.072;2022-10-16T07:19:48;1.63;;;1.52;;
14235;SDS011;7202;50.718;7.072;2022-10-16T07:22:19;1.60;;;1.50;;
14235;SDS011;7202;50.718;7.072;2022-10-16T07:24:48;2.20;;;1.80;;
14235;SDS011;7202;50.718;7.072;2022-10-16T07:27:18;2.10;;;1.60;;
14235;SDS011;7202;50.718;7.072;2022-10-16T07:29:49;2.20;;;1.60;;
14235;SDS011;7202;50.718;7.072;2022-10-16T07:32:17;1.63;;;1.52;;
14235;SDS011;7202;50.718;7.072;2022-10-16T07:34:46;3.10;;;1.52;;
14235;SDS011;7202;50.718;7.072;2022-10-16T07:37:16;3.53;;;1.67;;
14235;SDS011;7202;50.718;7.072;2022-10-16T07:39:44;1.55;;;1.45;;
14235;SDS011;7202;50.718;7.072;2022-10-16T07:42:13;1.60;;;1.45;;
14235;SDS011;7202;50.718;7.072;2022-10-16T07:44:41;1.83;;;1.40;;
14235;SDS011;7202;50.718;7.072;2022-10-16T07:47:10;1.60;;;1.50;;
14235;SDS011;7202;50.718;7.072;2022-10-16T07:49:38;2.10;;;1.67;;
14235;SDS011;7202;50.718;7.072;2022-10-16T07:52:07;3.30;;;1.42;;
14235;SDS011;7202;50.718;7.072;2022-10-16T07:54:37;4.03;;;1.65;;
14235;SDS011;7202;50.718;7.072;2022-10-16T07:57:05;1.40;;;1.30;;
14235;SDS011;7202;50.718;7.072;2022-10-16T07:59:34;1.52;;;1.42;;
14235;SDS011;7202;50.718;7.072;2022-10-16T08:02:02;1.77;;;1.15;;
14235;SDS011;7202;50.718;7.072;2022-10-16T08:04:31;1.20;;;1.10;;
14235;SDS011;7202;50.718;7.072;2022-10-16T08:07:00;1.95;;;1.42;;
14235;SDS011;7202;50.718;7.072;2022-10-16T08:09:28;2.00;;;1.30;;
14235;SDS011;7202;50.718;7.072;2022-10-16T08:11:58;1.80;;;1.10;;
14235;SDS011;7202;50.718;7.072;2022-10-16T08:14:28;1.02;;;0.93;;
14235;SDS011;7202;50.718;7.072;2022-10-16T08:16:57;1.20;;;1.10;;
14235;SDS011;7202;50.718;7.072;2022-10-16T08:19:25;1.15;;;1.05;;
14235;SDS011;7202;50.718;7.072;2022-10-16T08:21:54;1.60;;;1.08;;
14235;SDS011;7202;50.718;7.072;2022-10-16T08:24:23;1.40;;;1.00;;
14235;SDS011;7202;50.718;7.072;2022-10-16T08:26:53;1.65;;;1.10;;
14235;SDS011;7202;50.718;7.072;2022-10-16T08:29:23;1.60;;;1.00;;
14235;SDS011;7202;50.718;7.072;2022-10-16T08:31:51;2.55;;;1.20;;
14235;SDS011;7202;50.718;7.072;2022-10-16T08:34:20;1.88;;;1.35;;
14235;SDS011;7202;50.718;7.072;2022-10-16T08:36:48;1.70;;;1.10;;
14235;SDS011;7202;50.718;7.072;2022-10-16T08:39:17;1.40;;;1.00;;
14235;SDS011;7202;50.718;7.072;2022-10-16T08:41:59;1.75;;;1.00;;
14235;SDS011;7202;50.718;7.072;2022-10-16T08:44:53;2.35;;;1.00;;
14235;SDS011;7202;50.718;7.072;2022-10-16T08:47:43;1.05;;;0.95;;
14235;SDS011;7202;50.718;7.072;2022-10-16T08:50:18;2.78;;;1.30;;
14235;SDS011;7202;50.718;7.072;2022-10-16T08:52:51;3.88;;;0.88;;
14235;SDS011;7202;50.718;7.072;2022-10-16T08:55:29;3.38;;;1.00;;
14235;SDS011;7202;50.718;7.072;2022-10-16T08:58:01;1.95;;;1.00;;
14235;SDS011;7202;50.718;7.072;2022-10-16T09:00:31;1.27;;;1.08;;
14235;SDS011;7202;50.718;7.072;2022-10-16T09:03:04;1.63;;;1.00;;
14235;SDS011;7202;50.718;7.072;2022-10-16T09:05:45;1.83;;;0.85;;
14235;SDS011;7202;50.718;7.072;2022-10-16T09:08:27;3.17;;;1.27;;
14235;SDS011;7202;50.718;7.072;2022-10-16T09:11:05;1.25;;;0.70;;
14235;SDS011;7202;50.718;7.072;2022-10-16T09:13:43;2.08;;;1.00;;
14235;SDS011;7202;50.718;7.072;2022-10-16T09:16:21;2.10;;;1.00;;
14235;SDS011;7202;50.718;7.072;2022-10-16T09:18:54;0.75;;;0.75;;
14235;SDS011;7202;50.718;7.072;2022-10-16T09:21:28;2.22;;;1.00;;
14235;SDS011;7202;50.718;7.072;2022-10-16T09:23:58;0.80;;;0.80;;
14235;SDS011;7202;50.718;7.072;2022-10-16T09:26:32;1.00;;;0.70;;
14235;SDS011;7202;50.718;7.072;2022-10-16T09:29:01;1.77;;;0.82;;
14235;SDS011;7202;50.718;7.072;2022-10-16T09:31:32;0.90;;;0.70;;
14235;SDS011;7202;50.718;7.072;2022-10-16T09:34:04;0.73;;;0.65;;
14235;SDS011;7202;50.718;7.072;2022-10-16T09:36:36;2.20;;;0.77;;
14235;SDS011;7202;50.718;7.072;2022-10-16T09:39:08;2.22;;;1.02;;
14235;SDS011;7202;50.718;7.072;2022-10-16T09:41:39;2.30;;;0.70;;
14235;SDS011;7202;50.718;7.072;2022-10-16T09:44:16;0.60;;;0.52;;
14235;SDS011;7202;50.718;7.072;2022-10-16T09:47:00;0.57;;;0.50;;
14235;SDS011;7202;50.718;7.072;2022-10-16T09:49:29;0.80;;;0.60;;
14235;SDS011;7202;50.718;7.072;2022-10-16T09:52:04;0.80;;;0.70;;
14235;SDS011;7202;50.718;7.072;2022-10-16T09:54:33;0.60;;;0.47;;
14235;SDS011;7202;50.718;7.072;2022-10-16T09:57:05;1.15;;;0.57;;
14235;SDS011;7202;50.718;7.072;2022-10-16T09:59:44;2.40;;;0.90;;
14235;SDS011;7202;50.718;7.072;2022-10-16T10:02:16;0.70;;;0.50;;
14235;SDS011;7202;50.718;7.072;2022-10-16T10:04:48;0.40;;;0.40;;
14235;SDS011;7202;50.718;7.072;2022-10-16T10:07:23;0.68;;;0.60;;
14235;SDS011;7202;50.718;7.072;2022-10-16T10:09:54;0.80;;;0.60;;
14235;SDS011;7202;50.718;7.072;2022-10-16T10:12:25;1.27;;;0.40;;
14235;SDS011;7202;50.718;7.072;2022-10-16T10:14:56;0.82;;;0.60;;
14235;SDS011;7202;50.718;7.072;2022-10-16T10:17:33;3.60;;;0.55;;
14235;SDS011;7202;50.718;7.072;2022-10-16T10:20:13;0.40;;;0.40;;
14235;SDS011;7202;50.718;7.072;2022-10-16T10:22:50;1.65;;;1.33;;
14235;SDS011;7202;50.718;7.072;2022-10-16T10:25:19;0.70;;;0.47;;
14235;SDS011;7202;50.718;7.072;2022-10-16T10:28:00;0.68;;;0.47;;
14235;SDS011;7202;50.718;7.072;2022-10-16T10:30:54;0.57;;;0.40;;
14235;SDS011;7202;50.718;7.072;2022-10-16T10:33:30;5.15;;;0.90;;
14235;SDS011;7202;50.718;7.072;2022-10-16T10:36:11;1.50;;;0.60;;
14235;SDS011;7202;50.718;7.072;2022-10-16T10:38:51;1.13;;;0.50;;
14235;SDS011;7202;50.718;7.072;2022-10-16T10:41:32;0.82;;;0.50;;
14235;SDS011;7202;50.718;7.072;2022-10-16T10:44:22;1.35;;;0.50;;
14235;SDS011;7202;50.718;7.072;2022-10-16T10:47:04;0.88;;;0.45;;
14235;SDS011;7202;50.718;7.072;2022-10-16T10:49:47;0.77;;;0.68;;
14235;SDS011;7202;50.718;7.072;2022-10-16T10:52:34;3.00;;;0.73;;
14235;SDS011;7202;50.718;7.072;2022-10-16T10:55:13;1.15;;;0.50;;
14235;SDS011;7202;50.718;7.072;2022-10-16T10:57:56;0.75;;;0.40;;
14235;SDS011;7202;50.718;7.072;2022-10-16T11:00:40;0.32;;;0.30;;
14235;SDS011;7202;50.718;7.072;2022-10-16T11:03:17;0.70;;;0.60;;
14235;SDS011;7202;50.718;7.072;2022-10-16T11:05:57;0.52;;;0.40;;
14235;SDS011;7202;50.718;7.072;2022-10-16T11:08:29;0.35;;;0.30;;
14235;SDS011;7202;50.718;7.072;2022-10-16T11:11:02;0.95;;;0.45;;
14235;SDS011;7202;50.718;7.072;2022-10-16T11:13:34;0.95;;;0.50;;
14235;SDS011;7202;50.718;7.072;2022-10-16T11:16:10;0.73;;;0.50;;
14235;SDS011;7202;50.718;7.072;2022-10-16T11:18:49;0.77;;;0.40;;
14235;SDS011;7202;50.718;7.072;2022-10-16T11:21:25;2.65;;;0.50;;
14235;SDS011;7202;50.718;7.072;2022-10-16T11:23:58;1.98;;;0.55;;
14235;SDS011;7202;50.718;7.072;2022-10-16T11:26:32;1.38;;;0.50;;
14235;SDS011;7202;50.718;7.072;2022-10-16T11:29:07;0.63;;;0.47;;
14235;SDS011;7202;50.718;7.072;2022-10-16T11:31:46;1.23;;;0.80;;
14235;SDS011;7202;50.718;7.072;2022-10-16T11:34:20;0.60;;;0.40;;
14235;SDS011;7202;50.718;7.072;2022-10-16T11:36:55;1.63;;;0.60;;
14235;SDS011;7202;50.718;7.072;2022-10-16T11:39:30;1.52;;;0.60;;
14235;SDS011;7202;50.718;7.072;2022-10-16T11:42:00;1.45;;;0.50;;
14235;SDS011;7202;50.718;7.072;2022-10-16T11:44:35;0.65;;;0.30;;
14235;SDS011;7202;50.718;7.072;2022-10-16T11:47:15;0.98;;;0.50;;
14235;SDS011;7202;50.718;7.072;2022-10-16T11:50:13;2.47;;;0.50;;
14235;SDS011;7202;50.718;7.072;2022-10-16T11:52:53;0.85;;;0.50;;
14235;SDS011;7202;50.718;7.072;2022-10-16T11:55:27;0.60;;;0.50;;
14235;SDS011;7202;50.718;7.072;2022-10-16T11:57:59;2.47;;;0.57;;
14235;SDS011;7202;50.718;7.072;2022-10-16T12:00:35;1.35;;;0.47;;
14235;SDS011;7202;50.718;7.072;2022-10-16T12:03:11;1.17;;;0.40;;
14235;SDS011;7202;50.718;7.072;2022-10-16T12:05:57;1.65;;;0.50;;
14235;SDS011;7202;50.718;7.072;2022-10-16T12:08:35;3.20;;;0.40;;
14235;SDS011;7202;50.718;7.072;2022-10-16T12:11:08;0.77;;;0.50;;
14235;SDS011;7202;50.718;7.072;2022-10-16T12:13:39;1.30;;;0.50;;
14235;SDS011;7202;50.718;7.072;2022-10-16T12:16:22;0.95;;;0.80;;
14235;SDS011;7202;50.718;7.072;2022-10-16T12:19:02;4.03;;;0.60;;
14235;SDS011;7202;50.718;7.072;2022-10-16T12:21:37;0.52;;;0.40;;
14235;SDS011;7202;50.718;7.072;2022-10-16T12:24:18;0.50;;;0.30;;
14235;SDS011;7202;50.718;7.072;2022-10-16T12:26:50;0.22;;;0.22;;
14235;SDS011;7202;50.718;7.072;2022-10-16T12:29:22;0.77;;;0.50;;
14235;SDS011;7202;50.718;7.072;2022-10-16T12:31:56;0.45;;;0.30;;
14235;SDS011;7202;50.718;7.072;2022-10-16T12:34:26;1.35;;;0.55;;
14235;SDS011;7202;50.718;7.072;2022-10-16T12:37:07;2.10;;;0.43;;
14235;SDS011;7202;50.718;7.072;2022-10-16T12:39:43;0.98;;;0.60;;
14235;SDS011;7202;50.718;7.072;2022-10-16T12:42:31;2.53;;;0.60;;
14235;SDS011;7202;50.718;7.072;2022-10-16T12:45:02;2.90;;;0.68;;
14235;SDS011;7202;50.718;7.072;2022-10-16T12:47:52;1.58;;;0.63;;
14235;SDS011;7202;50.718;7.072;2022-10-16T12:50:26;0.57;;;0.50;;
14235;SDS011;7202;50.718;7.072;2022-10-16T12:53:01;1.08;;;0.70;;
14235;SDS011;7202;50.718;7.072;2022-10-16T12:55:34;2.47;;;0.60;;
14235;SDS011;7202;50.718;7.072;2022-10-16T12:58:19;0.75;;;0.60;;
14235;SDS011;7202;50.718;7.072;2022-10-16T13:00:57;1.55;;;0.52;;
14235;SDS011;7202;50.718;7.072;2022-10-16T13:03:40;0.40;;;0.40;;
14235;SDS011;7202;50.718;7.072;2022-10-16T13:06:25;1.13;;;0.70;;
14235;SDS011;7202;50.718;7.072;2022-10-16T13:15:05;0.82;;;0.50;;
14235;SDS011;7202;50.718;7.072;2022-10-16T13:17:45;0.85;;;0.60;;
14235;SDS011;7202;50.718;7.072;2022-10-16T13:20:25;1.00;;;0.80;;
14235;SDS011;7202;50.718;7.072;2022-10-16T13:23:03;1.73;;;0.60;;
14235;SDS011;7202;50.718;7.072;2022-10-16T13:25:53;0.65;;;0.45;;
14235;SDS011;7202;50.718;7.072;2022-10-16T13:28:33;0.50;;;0.50;;
14235;SDS011;7202;50.718;7.072;2022-10-16T13:31:03;1.70;;;0.77;;
14235;SDS011;7202;50.718;7.072;2022-10-16T13:33:33;2.15;;;0.40;;
14235;SDS011;7202;50.718;7.072;2022-10-16T13:36:04;0.85;;;0.40;;
14235;SDS011;7202;50.718;7.072;2022-10-16T13:38:34;0.52;;;0.40;;
14235;SDS011;7202;50.718;7.072;2022-10-16T13:41:04;0.77;;;0.57;;
14235;SDS011;7202;50.718;7.072;2022-10-16T13:43:43;0.40;;;0.40;;
14235;SDS011;7202;50.718;7.072;2022-10-16T13:46:15;2.35;;;0.57;;
14235;SDS011;7202;50.718;7.072;2022-10-16T13:48:55;3.28;;;0.60;;
14235;SDS011;7202;50.718;7.072;2022-10-16T13:51:24;1.35;;;0.65;;
14235;SDS011;7202;50.718;7.072;2022-10-16T13:53:54;0.98;;;0.35;;
14235;SDS011;7202;50.718;7.072;2022-10-16T13:56:25;0.60;;;0.40;;
14235;SDS011;7202;50.718;7.072;2022-10-16T13:58:59;0.57;;;0.40;;
14235;SDS011;7202;50.718;7.072;2022-10-16T14:01:30;0.50;;;0.30;;
14235;SDS011;7202;50.718;7.072;2022-10-16T14:04:02;0.68;;;0.50;;
14235;SDS011;7202;50.718;7.072;2022-10-16T14:06:33;0.77;;;0.47;;
14235;SDS011;7202;50.718;7.072;2022-10-16T14:09:05;2.40;;;0.50;;
14235;SDS011;7202;50.718;7.072;2022-10-16T14:11:36;0.38;;;0.38;;
14235;SDS011;7202;50.718;7.072;2022-10-16T14:14:15;1.20;;;0.30;;
14235;SDS011;7202;50.718;7.072;2022-10-16T14:16:44;0.38;;;0.32;;
14235;SDS011;7202;50.718;7.072;2022-10-16T14:19:15;0.88;;;0.60;;
14235;SDS011;7202;50.718;7.072;2022-10-16T14:21:49;0.90;;;0.50;;
14235;SDS011;7202;50.718;7.072;2022-10-16T14:24:24;1.65;;;0.75;;
14235;SDS011;7202;50.718;7.072;2022-10-16T14:26:55;1.33;;;0.50;;
14235;SDS011;7202;50.718;7.072;2022-10-16T14:29:25;0.50;;;0.40;;
14235;SDS011;7202;50.718;7.072;2022-10-16T14:31:58;0.80;;;0.40;;
14235;SDS011;7202;50.718;7.072;2022-10-16T14:34:29;0.60;;;0.50;;
14235;SDS011;7202;50.718;7.072;2022-10-16T14:37:00;0.80;;;0.38;;
14235;SDS011;7202;50.718;7.072;2022-10-16T14:39:38;1.80;;;0.60;;
14235;SDS011;7202;50.718;7.072;2022-10-16T14:42:11;0.50;;;0.50;;
14235;SDS011;7202;50.718;7.072;2022-10-16T14:44:46;0.40;;;0.40;;
14235;SDS011;7202;50.718;7.072;2022-10-16T14:47:16;1.00;;;0.50;;
14235;SDS011;7202;50.718;7.072;2022-10-16T14:49:49;0.75;;;0.50;;
14235;SDS011;7202;50.718;7.072;2022-10-16T14:52:18;2.65;;;0.70;;
14235;SDS011;7202;50.718;7.072;2022-10-16T14:54:47;2.35;;;0.60;;
14235;SDS011;7202;50.718;7.072;2022-10-16T14:57:17;1.88;;;0.40;;
14235;SDS011;7202;50.718;7.072;2022-10-16T14:59:49;1.45;;;0.65;;
14235;SDS011;7202;50.718;7.072;2022-10-16T15:02:20;0.93;;;0.60;;
14235;SDS011;7202;50.718;7.072;2022-10-16T15:04:55;0.65;;;0.55;;
14235;SDS011;7202;50.718;7.072;2022-10-16T15:07:24;0.90;;;0.70;;
14235;SDS011;7202;50.718;7.072;2022-10-16T15:09:54;1.05;;;0.70;;
14235;SDS011;7202;50.718;7.072;2022-10-16T15:12:23;1.02;;;0.60;;
14235;SDS011;7202;50.718;7.072;2022-10-16T15:14:53;6.07;;;0.70;;
14235;SDS011;7202;50.718;7.072;2022-10-16T15:17:22;0.80;;;0.70;;
14235;SDS011;7202;50.718;7.072;2022-10-16T15:19:51;1.00;;;0.70;;
14235;SDS011;7202;50.718;7.072;2022-10-16T15:22:20;4.97;;;0.75;;
14235;SDS011;7202;50.718;7.072;2022-10-16T15:24:50;1.15;;;0.82;;
14235;SDS011;7202;50.718;7.072;2022-10-16T15:27:18;1.08;;;0.80;;
14235;SDS011;7202;50.718;7.072;2022-10-16T15:29:47;0.80;;;0.70;;
14235;SDS011;7202;50.718;7.072;2022-10-16T15:32:17;1.13;;;0.70;;
14235;SDS011;7202;50.718;7.072;2022-10-16T15:34:45;0.75;;;0.70;;
14235;SDS011;7202;50.718;7.072;2022-10-16T15:37:14;1.33;;;0.80;;